sensor_id;sensor_type;location;lat;lon;timestamp;pressure;altitude;pressure_sealevel;temperature;humidity
64616;BME280;51027;42.162;24.754;2023-02-23T00:00:28;99707.75;;;7.87;79.21
64616;BME280;51027;42.162;24.754;2023-02-23T00:02:58;99698.31;;;7.81;79.19
64616;BME280;51027;42.162;24.754;2023-02-23T00:05:30;99695.91;;;7.73;79.04
64616;BME280;51027;42.162;24.754;2023-02-23T00:07:56;99702.97;;;7.71;79.78
64616;BME280;51027;42.162;24.754;2023-02-23T00:10:22;99705.50;;;7.74;79.83
64616;BME280;51027;42.162;24.754;2023-02-23T00:12:58;99704.78;;;7.69;79.72
64616;BME280;51027;42.162;24.754;2023-02-23T00:15:27;99706.28;;;7.78;79.64
64616;BME280;51027;42.162;24.754;2023-02-23T00:17:54;99708.16;;;7.73;80.15
64616;BME280;51027;42.162;24.754;2023-02-23T00:20:20;99708.09;;;7.74;79.96
64616;BME280;51027;42.162;24.754;2023-02-23T00:22:51;99716.97;;;7.70;80.39
64616;BME280;51027;42.162;24.754;2023-02-23T00:25:18;99704.53;;;7.78;79.69
64616;BME280;51027;42.162;24.754;2023-02-23T00:27:43;99716.13;;;7.70;80.13
64616;BME280;51027;42.162;24.754;2023-02-23T00:30:14;99693.63;;;7.61;80.23
64616;BME280;51027;42.162;24.754;2023-02-23T00:32:40;99717.59;;;7.80;79.79
64616;BME280;51027;42.162;24.754;2023-02-23T00:35:06;99699.78;;;7.60;80.46
64616;BME280;51027;42.162;24.754;2023-02-23T00:37:47;99710.88;;;7.70;80.29
64616;BME280;51027;42.162;24.754;2023-02-23T00:40:14;99707.09;;;7.80;80.16
64616;BME280;51027;42.162;24.754;2023-02-23T00:42:44;99709.81;;;7.77;80.07
64616;BME280;51027;42.162;24.754;2023-02-23T00:45:11;99714.19;;;7.76;80.52
64616;BME280;51027;42.162;24.754;2023-02-23T00:47:41;99688.53;;;7.55;80.73
64616;BME280;51027;42.162;24.754;2023-02-23T00:50:09;99714.16;;;7.78;80.33
64616;BME280;51027;42.162;24.754;2023-02-23T00:52:38;99716.06;;;7.71;80.71
64616;BME280;51027;42.162;24.754;2023-02-23T00:55:06;99718.53;;;7.76;80.68
64616;BME280;51027;42.162;24.754;2023-02-23T00:57:32;99714.91;;;7.82;80.15
64616;BME280;51027;42.162;24.754;2023-02-23T00:59:57;99710.56;;;7.80;79.93
64616;BME280;51027;42.162;24.754;2023-02-23T01:02:23;99716.63;;;7.83;80.40
64616;BME280;51027;42.162;24.754;2023-02-23T01:04:49;99694.28;;;7.69;80.38
64616;BME280;51027;42.162;24.754;2023-02-23T01:07:14;99707.06;;;7.82;80.16
64616;BME280;51027;42.162;24.754;2023-02-23T01:09:40;99700.19;;;7.77;79.94
64616;BME280;51027;42.162;24.754;2023-02-23T01:12:06;99699.34;;;7.75;80.12
64616;BME280;51027;42.162;24.754;2023-02-23T01:14:32;99717.44;;;7.85;80.27
64616;BME280;51027;42.162;24.754;2023-02-23T01:16:58;99684.06;;;7.60;80.60
64616;BME280;51027;42.162;24.754;2023-02-23T01:19:24;99704.53;;;7.78;80.19
64616;BME280;51027;42.162;24.754;2023-02-23T01:21:50;99707.09;;;7.80;79.87
64616;BME280;51027;42.162;24.754;2023-02-23T01:24:16;99723.38;;;7.91;80.15
64616;BME280;51027;42.162;24.754;2023-02-23T01:26:43;99713.28;;;7.77;80.11
64616;BME280;51027;42.162;24.754;2023-02-23T01:29:16;99718.00;;;7.96;79.65
64616;BME280;51027;42.162;24.754;2023-02-23T01:31:44;99714.50;;;7.64;80.92
64616;BME280;51027;42.162;24.754;2023-02-23T01:34:12;99720.66;;;7.63;81.51
64616;BME280;51027;42.162;24.754;2023-02-23T01:36:40;99720.84;;;7.57;81.96
64616;BME280;51027;42.162;24.754;2023-02-23T01:39:09;99716.50;;;7.56;82.17
64616;BME280;51027;42.162;24.754;2023-02-23T01:41:36;99724.31;;;7.58;82.25
64616;BME280;51027;42.162;24.754;2023-02-23T01:46:39;99730.84;;;7.41;83.05
64616;BME280;51027;42.162;24.754;2023-02-23T01:49:07;99732.59;;;7.73;81.25
64616;BME280;51027;42.162;24.754;2023-02-23T01:51:37;99729.03;;;7.76;80.89
64616;BME280;51027;42.162;24.754;2023-02-23T01:54:11;99704.97;;;7.29;82.20
64616;BME280;51027;42.162;24.754;2023-02-23T01:56:43;99726.06;;;7.57;81.74
64616;BME280;51027;42.162;24.754;2023-02-23T01:59:11;99724.34;;;7.56;81.44
64616;BME280;51027;42.162;24.754;2023-02-23T02:01:41;99724.19;;;7.62;80.98
64616;BME280;51027;42.162;24.754;2023-02-23T02:04:08;99732.22;;;7.56;81.56
64616;BME280;51027;42.162;24.754;2023-02-23T02:06:42;99728.13;;;7.78;80.05
64616;BME280;51027;42.162;24.754;2023-02-23T02:09:13;99728.41;;;7.68;80.78
64616;BME280;51027;42.162;24.754;2023-02-23T02:11:43;99737.47;;;7.55;81.07
64616;BME280;51027;42.162;24.754;2023-02-23T02:14:26;99736.22;;;7.69;80.64
64616;BME280;51027;42.162;24.754;2023-02-23T02:17:26;99737.28;;;7.62;80.64
64616;BME280;51027;42.162;24.754;2023-02-23T02:20:16;99730.38;;;7.60;80.29
64616;BME280;51027;42.162;24.754;2023-02-23T02:35:49;99740.28;;;7.48;80.63
64616;BME280;51027;42.162;24.754;2023-02-23T02:40:50;99740.41;;;7.42;81.01
64616;BME280;51027;42.162;24.754;2023-02-23T02:45:55;99732.59;;;7.41;80.63
64616;BME280;51027;42.162;24.754;2023-02-23T02:48:31;99739.94;;;7.61;80.32
64616;BME280;51027;42.162;24.754;2023-02-23T02:51:10;99729.41;;;7.62;79.19
64616;BME280;51027;42.162;24.754;2023-02-23T02:53:53;99751.44;;;7.55;79.62
64616;BME280;51027;42.162;24.754;2023-02-23T02:56:24;99750.22;;;7.36;80.54
64616;BME280;51027;42.162;24.754;2023-02-23T02:58:52;99737.22;;;7.31;80.58
64616;BME280;51027;42.162;24.754;2023-02-23T03:01:18;99736.59;;;7.21;81.15
64616;BME280;51027;42.162;24.754;2023-02-23T03:04:23;99752.16;;;7.28;81.14
64616;BME280;51027;42.162;24.754;2023-02-23T03:07:19;99748.88;;;7.19;81.71
64616;BME280;51027;42.162;24.754;2023-02-23T03:19:26;99760.03;;;6.90;83.42
64616;BME280;51027;42.162;24.754;2023-02-23T03:22:31;99762.84;;;6.81;83.91
64616;BME280;51027;42.162;24.754;2023-02-23T03:25:44;99770.63;;;6.86;83.77
64616;BME280;51027;42.162;24.754;2023-02-23T03:28:34;99769.59;;;6.91;83.43
64616;BME280;51027;42.162;24.754;2023-02-23T03:31:41;99774.06;;;6.88;83.65
64616;BME280;51027;42.162;24.754;2023-02-23T03:34:36;99774.00;;;6.89;82.98
64616;BME280;51027;42.162;24.754;2023-02-23T03:37:36;99767.59;;;7.03;81.29
64616;BME280;51027;42.162;24.754;2023-02-23T03:40:24;99760.28;;;6.80;81.72
64616;BME280;51027;42.162;24.754;2023-02-23T03:43:17;99779.94;;;6.59;82.82
64616;BME280;51027;42.162;24.754;2023-02-23T03:46:07;99782.03;;;6.42;84.04
64616;BME280;51027;42.162;24.754;2023-02-23T03:48:54;99778.28;;;6.13;85.31
64616;BME280;51027;42.162;24.754;2023-02-23T03:51:42;99781.72;;;6.15;85.94
64616;BME280;51027;42.162;24.754;2023-02-23T03:54:34;99785.31;;;6.10;86.37
64616;BME280;51027;42.162;24.754;2023-02-23T03:57:24;99785.91;;;6.24;85.45
64616;BME280;51027;42.162;24.754;2023-02-23T04:00:15;99774.09;;;6.04;85.80
64616;BME280;51027;42.162;24.754;2023-02-23T04:03:03;99780.78;;;6.18;85.35
64616;BME280;51027;42.162;24.754;2023-02-23T04:05:50;99780.25;;;6.00;85.98
64616;BME280;51027;42.162;24.754;2023-02-23T04:08:36;99785.38;;;6.06;85.70
64616;BME280;51027;42.162;24.754;2023-02-23T04:11:50;99785.06;;;6.23;84.81
64616;BME280;51027;42.162;24.754;2023-02-23T04:14:47;99788.63;;;6.18;84.97
64616;BME280;51027;42.162;24.754;2023-02-23T04:17:15;99787.31;;;5.97;85.14
64616;BME280;51027;42.162;24.754;2023-02-23T04:19:49;99780.56;;;5.82;85.70
64616;BME280;51027;42.162;24.754;2023-02-23T04:22:14;99785.81;;;5.81;85.68
64616;BME280;51027;42.162;24.754;2023-02-23T04:24:40;99787.53;;;5.83;85.85
64616;BME280;51027;42.162;24.754;2023-02-23T04:27:05;99774.50;;;5.80;85.91
64616;BME280;51027;42.162;24.754;2023-02-23T04:29:31;99771.53;;;5.54;86.78
64616;BME280;51027;42.162;24.754;2023-02-23T04:31:56;99790.53;;;5.60;87.45
64616;BME280;51027;42.162;24.754;2023-02-23T04:34:22;99790.34;;;5.71;86.67
64616;BME280;51027;42.162;24.754;2023-02-23T04:36:47;99780.84;;;5.67;86.30
64616;BME280;51027;42.162;24.754;2023-02-23T04:39:15;99790.56;;;5.59;86.84
64616;BME280;51027;42.162;24.754;2023-02-23T04:41:41;99794.00;;;5.62;87.17
64616;BME280;51027;42.162;24.754;2023-02-23T04:44:06;99790.41;;;5.68;86.32
64616;BME280;51027;42.162;24.754;2023-02-23T04:46:32;99794.94;;;5.58;86.52
64616;BME280;51027;42.162;24.754;2023-02-23T04:48:57;99782.06;;;5.47;86.41
64616;BME280;51027;42.162;24.754;2023-02-23T04:51:23;99799.59;;;5.39;86.97
64616;BME280;51027;42.162;24.754;2023-02-23T04:53:48;99789.25;;;5.35;87.93
64616;BME280;51027;42.162;24.754;2023-02-23T04:56:14;99795.53;;;5.23;88.45
64616;BME280;51027;42.162;24.754;2023-02-23T04:58:40;99781.69;;;5.18;88.36
64616;BME280;51027;42.162;24.754;2023-02-23T05:01:07;99785.97;;;5.20;88.60
64616;BME280;51027;42.162;24.754;2023-02-23T05:03:34;99806.09;;;5.15;89.90
64616;BME280;51027;42.162;24.754;2023-02-23T05:06:00;99805.09;;;5.24;89.70
64616;BME280;51027;42.162;24.754;2023-02-23T05:08:26;99811.06;;;5.32;88.83
64616;BME280;51027;42.162;24.754;2023-02-23T05:10:51;99807.69;;;5.24;89.20
64616;BME280;51027;42.162;24.754;2023-02-23T05:13:16;99792.44;;;4.97;90.00
64616;BME280;51027;42.162;24.754;2023-02-23T05:15:42;99819.28;;;5.06;90.30
64616;BME280;51027;42.162;24.754;2023-02-23T05:18:07;99825.97;;;5.24;88.17
64616;BME280;51027;42.162;24.754;2023-02-23T05:20:33;99826.06;;;5.18;87.84
64616;BME280;51027;42.162;24.754;2023-02-23T05:22:58;99829.75;;;5.05;88.31
64616;BME280;51027;42.162;24.754;2023-02-23T05:25:24;99833.81;;;5.24;87.40
64616;BME280;51027;42.162;24.754;2023-02-23T05:27:49;99835.53;;;5.25;87.16
64616;BME280;51027;42.162;24.754;2023-02-23T05:30:15;99835.19;;;5.46;86.51
64616;BME280;51027;42.162;24.754;2023-02-23T05:32:40;99792.19;;;5.15;85.91
64616;BME280;51027;42.162;24.754;2023-02-23T05:35:06;99847.16;;;5.60;85.46
64616;BME280;51027;42.162;24.754;2023-02-23T05:37:33;99847.97;;;5.65;85.38
64616;BME280;51027;42.162;24.754;2023-02-23T05:39:59;99843.66;;;5.62;84.99
64616;BME280;51027;42.162;24.754;2023-02-23T05:42:24;99855.44;;;5.86;84.05
64616;BME280;51027;42.162;24.754;2023-02-23T05:44:50;99861.56;;;5.82;84.39
64616;BME280;51027;42.162;24.754;2023-02-23T05:47:15;99870.41;;;5.76;85.19
64616;BME280;51027;42.162;24.754;2023-02-23T05:49:40;99866.69;;;5.93;84.69
64616;BME280;51027;42.162;24.754;2023-02-23T05:52:06;99873.28;;;6.14;83.10
64616;BME280;51027;42.162;24.754;2023-02-23T05:54:32;99869.50;;;6.28;81.95
64616;BME280;51027;42.162;24.754;2023-02-23T05:56:58;99879.84;;;6.33;81.46
64616;BME280;51027;42.162;24.754;2023-02-23T05:59:23;99880.81;;;6.29;81.42
64616;BME280;51027;42.162;24.754;2023-02-23T06:01:49;99891.16;;;6.37;81.84
64616;BME280;51027;42.162;24.754;2023-02-23T06:04:14;99861.56;;;6.33;81.51
64616;BME280;51027;42.162;24.754;2023-02-23T06:06:41;99892.56;;;6.54;81.96
64616;BME280;51027;42.162;24.754;2023-02-23T06:09:07;99891.25;;;6.75;80.33
64616;BME280;51027;42.162;24.754;2023-02-23T06:11:32;99885.16;;;6.75;80.14
64616;BME280;51027;42.162;24.754;2023-02-23T06:13:58;99898.72;;;6.93;78.92
64616;BME280;51027;42.162;24.754;2023-02-23T06:16:25;99877.22;;;7.55;76.46
64616;BME280;51027;42.162;24.754;2023-02-23T06:18:51;99879.97;;;7.86;74.81
64616;BME280;51027;42.162;24.754;2023-02-23T06:21:16;99900.91;;;8.56;72.25
64616;BME280;51027;42.162;24.754;2023-02-23T06:23:42;99901.72;;;8.58;71.09
64616;BME280;51027;42.162;24.754;2023-02-23T06:26:07;99904.97;;;8.97;69.93
64616;BME280;51027;42.162;24.754;2023-02-23T06:28:33;99898.78;;;9.00;69.50
64616;BME280;51027;42.162;24.754;2023-02-23T06:30:58;99902.50;;;9.76;66.60
64616;BME280;51027;42.162;24.754;2023-02-23T06:33:24;99902.72;;;9.97;66.12
64616;BME280;51027;42.162;24.754;2023-02-23T06:35:49;99900.28;;;10.17;64.99
64616;BME280;51027;42.162;24.754;2023-02-23T06:38:15;99910.78;;;10.92;62.88
64616;BME280;51027;42.162;24.754;2023-02-23T06:40:40;99910.56;;;11.21;61.42
64616;BME280;51027;42.162;24.754;2023-02-23T06:43:06;99894.59;;;11.26;60.91
64616;BME280;51027;42.162;24.754;2023-02-23T06:45:31;99889.63;;;11.84;59.24
64616;BME280;51027;42.162;24.754;2023-02-23T06:48:00;99915.16;;;12.46;57.08
64616;BME280;51027;42.162;24.754;2023-02-23T06:50:26;99914.91;;;12.32;56.96
64616;BME280;51027;42.162;24.754;2023-02-23T06:52:52;99895.03;;;12.44;55.84
64616;BME280;51027;42.162;24.754;2023-02-23T06:55:17;99918.16;;;10.34;62.39
64616;BME280;51027;42.162;24.754;2023-02-23T06:57:43;99915.50;;;11.74;59.69
64616;BME280;51027;42.162;24.754;2023-02-23T07:00:10;99906.34;;;13.05;54.85
64616;BME280;51027;42.162;24.754;2023-02-23T07:02:40;99912.44;;;13.64;53.02
64616;BME280;51027;42.162;24.754;2023-02-23T07:05:06;99921.44;;;14.49;50.24
64616;BME280;51027;42.162;24.754;2023-02-23T07:07:32;99902.78;;;12.87;53.89
64616;BME280;51027;42.162;24.754;2023-02-23T07:09:57;99913.34;;;13.99;52.10
64616;BME280;51027;42.162;24.754;2023-02-23T07:12:22;99919.47;;;14.35;50.40
64616;BME280;51027;42.162;24.754;2023-02-23T07:14:48;99919.69;;;13.60;51.99
64616;BME280;51027;42.162;24.754;2023-02-23T07:17:13;99921.63;;;11.31;59.03
64616;BME280;51027;42.162;24.754;2023-02-23T07:19:39;99916.84;;;11.63;58.29
64616;BME280;51027;42.162;24.754;2023-02-23T07:22:04;99920.16;;;11.24;59.91
64616;BME280;51027;42.162;24.754;2023-02-23T07:24:30;99915.13;;;10.94;60.99
64616;BME280;51027;42.162;24.754;2023-02-23T07:26:55;99907.25;;;11.83;58.52
64616;BME280;51027;42.162;24.754;2023-02-23T07:29:21;99914.50;;;14.47;51.28
64616;BME280;51027;42.162;24.754;2023-02-23T07:31:48;99904.44;;;15.82;47.47
64616;BME280;51027;42.162;24.754;2023-02-23T07:34:14;99894.84;;;16.26;45.48
64616;BME280;51027;42.162;24.754;2023-02-23T07:36:40;99891.25;;;16.41;45.28
64616;BME280;51027;42.162;24.754;2023-02-23T07:39:05;99914.22;;;16.12;45.98
64616;BME280;51027;42.162;24.754;2023-02-23T07:41:31;99926.28;;;15.24;47.34
64616;BME280;51027;42.162;24.754;2023-02-23T07:43:58;99921.63;;;14.27;50.59
64616;BME280;51027;42.162;24.754;2023-02-23T07:46:23;99912.84;;;15.43;47.72
64616;BME280;51027;42.162;24.754;2023-02-23T07:48:49;99912.56;;;16.55;45.63
64616;BME280;51027;42.162;24.754;2023-02-23T07:51:15;99914.91;;;16.90;43.89
64616;BME280;51027;42.162;24.754;2023-02-23T07:53:42;99891.13;;;17.15;43.35
64616;BME280;51027;42.162;24.754;2023-02-23T07:56:09;99898.91;;;17.33;42.92
64616;BME280;51027;42.162;24.754;2023-02-23T07:58:36;99901.19;;;18.72;40.64
64616;BME280;51027;42.162;24.754;2023-02-23T08:01:02;99893.81;;;19.50;38.40
64616;BME280;51027;42.162;24.754;2023-02-23T08:03:28;99894.81;;;18.22;41.00
64616;BME280;51027;42.162;24.754;2023-02-23T08:05:54;99897.22;;;18.78;40.11
64616;BME280;51027;42.162;24.754;2023-02-23T08:08:19;99902.75;;;18.62;40.49
64616;BME280;51027;42.162;24.754;2023-02-23T08:10:45;99906.47;;;17.53;42.61
64616;BME280;51027;42.162;24.754;2023-02-23T08:13:12;99888.50;;;19.01;39.78
64616;BME280;51027;42.162;24.754;2023-02-23T08:15:37;99901.34;;;19.20;39.05
64616;BME280;51027;42.162;24.754;2023-02-23T08:18:03;99900.56;;;18.94;39.42
64616;BME280;51027;42.162;24.754;2023-02-23T08:20:29;99877.47;;;17.90;41.20
64616;BME280;51027;42.162;24.754;2023-02-23T08:22:55;99898.88;;;18.28;41.20
64616;BME280;51027;42.162;24.754;2023-02-23T08:25:21;99891.34;;;19.11;39.42
64616;BME280;51027;42.162;24.754;2023-02-23T08:27:47;99897.84;;;20.63;36.80
64616;BME280;51027;42.162;24.754;2023-02-23T08:30:13;99899.69;;;20.74;36.49
64616;BME280;51027;42.162;24.754;2023-02-23T08:32:39;99905.31;;;18.63;39.73
64616;BME280;51027;42.162;24.754;2023-02-23T08:35:05;99911.81;;;19.36;38.64
64616;BME280;51027;42.162;24.754;2023-02-23T08:37:32;99905.78;;;19.58;38.41
64616;BME280;51027;42.162;24.754;2023-02-23T08:39:57;99881.69;;;19.70;37.78
64616;BME280;51027;42.162;24.754;2023-02-23T08:42:25;99909.94;;;19.49;38.97
64616;BME280;51027;42.162;24.754;2023-02-23T08:44:50;99883.75;;;20.61;36.67
64616;BME280;51027;42.162;24.754;2023-02-23T08:47:16;99914.16;;;20.60;36.47
64616;BME280;51027;42.162;24.754;2023-02-23T08:49:46;99894.13;;;21.21;35.52
64616;BME280;51027;42.162;24.754;2023-02-23T08:52:11;99902.16;;;21.10;35.83
64616;BME280;51027;42.162;24.754;2023-02-23T08:54:36;99903.28;;;20.15;37.30
64616;BME280;51027;42.162;24.754;2023-02-23T08:57:02;99906.94;;;18.13;41.07
64616;BME280;51027;42.162;24.754;2023-02-23T08:59:27;99915.03;;;17.58;42.36
64616;BME280;51027;42.162;24.754;2023-02-23T09:01:53;99905.19;;;21.62;35.90
64616;BME280;51027;42.162;24.754;2023-02-23T09:04:18;99900.34;;;22.93;33.40
64616;BME280;51027;42.162;24.754;2023-02-23T09:06:45;99903.16;;;23.22;32.62
64616;BME280;51027;42.162;24.754;2023-02-23T09:09:12;99908.50;;;21.97;34.40
64616;BME280;51027;42.162;24.754;2023-02-23T09:11:37;99910.00;;;21.36;35.17
64616;BME280;51027;42.162;24.754;2023-02-23T09:14:03;99884.88;;;21.48;35.09
64616;BME280;51027;42.162;24.754;2023-02-23T09:16:28;99906.63;;;22.62;33.70
64616;BME280;51027;42.162;24.754;2023-02-23T09:18:54;99903.44;;;23.19;32.38
64616;BME280;51027;42.162;24.754;2023-02-23T09:21:20;99892.41;;;23.22;32.20
64616;BME280;51027;42.162;24.754;2023-02-23T09:23:49;99903.03;;;23.64;32.04
64616;BME280;51027;42.162;24.754;2023-02-23T09:26:16;99896.28;;;24.57;30.67
64616;BME280;51027;42.162;24.754;2023-02-23T09:28:44;99901.03;;;22.75;32.61
64616;BME280;51027;42.162;24.754;2023-02-23T09:31:13;99903.84;;;21.45;35.33
64616;BME280;51027;42.162;24.754;2023-02-23T09:33:39;99902.59;;;18.90;38.95
64616;BME280;51027;42.162;24.754;2023-02-23T09:36:10;99902.13;;;20.30;37.44
64616;BME280;51027;42.162;24.754;2023-02-23T09:38:37;99898.25;;;23.07;33.09
64616;BME280;51027;42.162;24.754;2023-02-23T09:41:22;99882.81;;;24.47;30.62
64616;BME280;51027;42.162;24.754;2023-02-23T09:44:07;99863.47;;;25.45;29.07
64616;BME280;51027;42.162;24.754;2023-02-23T09:49:22;99894.13;;;25.17;29.56
64616;BME280;51027;42.162;24.754;2023-02-23T09:51:52;99897.78;;;21.86;33.81
64616;BME280;51027;42.162;24.754;2023-02-23T09:54:23;99895.84;;;20.07;37.81
64616;BME280;51027;42.162;24.754;2023-02-23T09:56:49;99889.50;;;23.05;32.79
64616;BME280;51027;42.162;24.754;2023-02-23T09:59:19;99860.97;;;21.56;34.33
64616;BME280;51027;42.162;24.754;2023-02-23T10:02:01;99877.59;;;22.14;34.50
64616;BME280;51027;42.162;24.754;2023-02-23T10:04:40;99882.53;;;24.40;30.53
64616;BME280;51027;42.162;24.754;2023-02-23T10:07:21;99876.16;;;24.41;30.68
64616;BME280;51027;42.162;24.754;2023-02-23T10:13:37;99875.56;;;25.14;29.47
64616;BME280;51027;42.162;24.754;2023-02-23T10:16:21;99883.81;;;24.07;30.60
64616;BME280;51027;42.162;24.754;2023-02-23T10:19:02;99876.69;;;24.64;30.18
64616;BME280;51027;42.162;24.754;2023-02-23T10:24:05;99862.56;;;23.25;31.71
64616;BME280;51027;42.162;24.754;2023-02-23T10:26:41;99850.94;;;20.24;36.42
64616;BME280;51027;42.162;24.754;2023-02-23T10:29:21;99861.41;;;20.84;36.07
64616;BME280;51027;42.162;24.754;2023-02-23T10:31:51;99865.78;;;20.96;35.58
64616;BME280;51027;42.162;24.754;2023-02-23T10:34:18;99842.78;;;21.71;34.29
64616;BME280;51027;42.162;24.754;2023-02-23T10:37:01;99845.84;;;19.97;37.77
64616;BME280;51027;42.162;24.754;2023-02-23T10:39:31;99837.91;;;22.29;34.24
64616;BME280;51027;42.162;24.754;2023-02-23T10:41:59;99824.75;;;22.56;33.29
64616;BME280;51027;42.162;24.754;2023-02-23T10:44:27;99836.91;;;20.55;36.52
64616;BME280;51027;42.162;24.754;2023-02-23T10:47:02;99839.25;;;19.90;37.75
64616;BME280;51027;42.162;24.754;2023-02-23T10:49:48;99828.22;;;20.40;37.14
64616;BME280;51027;42.162;24.754;2023-02-23T10:54:50;99826.91;;;18.91;39.78
64616;BME280;51027;42.162;24.754;2023-02-23T10:57:28;99826.44;;;18.59;40.34
64616;BME280;51027;42.162;24.754;2023-02-23T11:02:43;99826.72;;;20.14;37.43
64616;BME280;51027;42.162;24.754;2023-02-23T11:05:34;99823.63;;;21.32;36.30
64616;BME280;51027;42.162;24.754;2023-02-23T11:08:26;99820.66;;;22.83;33.41
64616;BME280;51027;42.162;24.754;2023-02-23T11:13:21;99810.03;;;24.76;30.62
64616;BME280;51027;42.162;24.754;2023-02-23T11:15:47;99810.66;;;25.43;28.97
64616;BME280;51027;42.162;24.754;2023-02-23T11:18:24;99811.03;;;27.23;27.00
64616;BME280;51027;42.162;24.754;2023-02-23T11:20:50;99801.69;;;28.17;26.17
64616;BME280;51027;42.162;24.754;2023-02-23T11:25:47;99790.44;;;25.92;28.24
64616;BME280;51027;42.162;24.754;2023-02-23T11:28:36;99803.63;;;23.43;31.80
64616;BME280;51027;42.162;24.754;2023-02-23T11:31:15;99798.34;;;22.52;33.21
64616;BME280;51027;42.162;24.754;2023-02-23T11:33:42;99783.56;;;23.67;31.65
64616;BME280;51027;42.162;24.754;2023-02-23T11:36:26;99794.41;;;26.76;28.08
64616;BME280;51027;42.162;24.754;2023-02-23T11:39:17;99786.88;;;25.56;29.84
64616;BME280;51027;42.162;24.754;2023-02-23T11:41:44;99799.97;;;26.04;29.10
64616;BME280;51027;42.162;24.754;2023-02-23T11:44:21;99781.22;;;24.20;31.36
64616;BME280;51027;42.162;24.754;2023-02-23T11:46:47;99780.41;;;24.00;32.19
64616;BME280;51027;42.162;24.754;2023-02-23T11:49:28;99781.72;;;23.96;31.74
64616;BME280;51027;42.162;24.754;2023-02-23T11:51:56;99783.81;;;22.85;33.38
64616;BME280;51027;42.162;24.754;2023-02-23T11:54:29;99775.31;;;23.30;33.06
64616;BME280;51027;42.162;24.754;2023-02-23T11:56:55;99783.44;;;22.78;33.52
64616;BME280;51027;42.162;24.754;2023-02-23T11:59:37;99790.09;;;21.49;35.48
64616;BME280;51027;42.162;24.754;2023-02-23T12:02:25;99795.66;;;18.30;42.28
64616;BME280;51027;42.162;24.754;2023-02-23T12:05:17;99776.66;;;18.09;43.42
64616;BME280;51027;42.162;24.754;2023-02-23T12:10:47;99794.56;;;20.83;39.09
64616;BME280;51027;42.162;24.754;2023-02-23T12:16:34;99782.53;;;20.66;38.15
64616;BME280;51027;42.162;24.754;2023-02-23T12:22:10;99783.81;;;21.16;38.56
64616;BME280;51027;42.162;24.754;2023-02-23T12:24:58;99778.78;;;21.34;37.60
64616;BME280;51027;42.162;24.754;2023-02-23T12:27:37;99788.66;;;24.65;32.59
64616;BME280;51027;42.162;24.754;2023-02-23T12:30:16;99795.28;;;24.70;32.53
64616;BME280;51027;42.162;24.754;2023-02-23T12:38:18;99805.06;;;23.07;35.74
64616;BME280;51027;42.162;24.754;2023-02-23T12:40:54;99811.34;;;21.62;37.90
64616;BME280;51027;42.162;24.754;2023-02-23T12:43:31;99813.66;;;22.61;36.48
64616;BME280;51027;42.162;24.754;2023-02-23T12:48:34;99803.06;;;20.43;41.10
64616;BME280;51027;42.162;24.754;2023-02-23T12:51:15;99809.22;;;22.29;37.46
64616;BME280;51027;42.162;24.754;2023-02-23T12:53:43;99807.81;;;19.21;43.61
64616;BME280;51027;42.162;24.754;2023-02-23T13:03:54;99821.56;;;20.11;42.37
64616;BME280;51027;42.162;24.754;2023-02-23T13:06:36;99818.69;;;20.14;42.04
64616;BME280;51027;42.162;24.754;2023-02-23T13:12:06;99812.72;;;20.22;42.80
64616;BME280;51027;42.162;24.754;2023-02-23T13:17:21;99810.97;;;21.12;41.22
64616;BME280;51027;42.162;24.754;2023-02-23T13:19:53;99815.72;;;21.19;40.44
64616;BME280;51027;42.162;24.754;2023-02-23T13:22:27;99817.25;;;21.44;39.82
64616;BME280;51027;42.162;24.754;2023-02-23T13:24:57;99827.53;;;19.79;42.72
64616;BME280;51027;42.162;24.754;2023-02-23T13:27:33;99823.38;;;19.99;42.72
64616;BME280;51027;42.162;24.754;2023-02-23T13:30:00;99815.53;;;19.37;43.77
64616;BME280;51027;42.162;24.754;2023-02-23T13:32:28;99824.22;;;18.79;45.84
64616;BME280;51027;42.162;24.754;2023-02-23T13:35:02;99833.06;;;17.76;48.43
64616;BME280;51027;42.162;24.754;2023-02-23T13:37:44;99829.81;;;16.17;53.52
64616;BME280;51027;42.162;24.754;2023-02-23T13:40:39;99824.06;;;17.91;48.14
64616;BME280;51027;42.162;24.754;2023-02-23T13:43:34;99811.19;;;19.84;43.13
64616;BME280;51027;42.162;24.754;2023-02-23T13:51:48;99841.97;;;14.65;57.67
64616;BME280;51027;42.162;24.754;2023-02-23T14:01:45;99852.34;;;13.11;65.43
64616;BME280;51027;42.162;24.754;2023-02-23T14:06:51;99832.91;;;13.12;65.88
64616;BME280;51027;42.162;24.754;2023-02-23T14:09:43;99840.44;;;12.63;68.37
64616;BME280;51027;42.162;24.754;2023-02-23T14:12:34;99853.47;;;13.43;66.30
64616;BME280;51027;42.162;24.754;2023-02-23T14:17:59;99849.75;;;12.90;67.94
64616;BME280;51027;42.162;24.754;2023-02-23T14:23:28;99839.59;;;13.38;66.08
64616;BME280;51027;42.162;24.754;2023-02-23T14:26:36;99851.75;;;13.04;67.70
64616;BME280;51027;42.162;24.754;2023-02-23T14:34:45;99869.75;;;11.75;73.55
64616;BME280;51027;42.162;24.754;2023-02-23T14:37:25;99872.41;;;12.18;71.90
64616;BME280;51027;42.162;24.754;2023-02-23T14:39:59;99870.97;;;11.89;73.46
64616;BME280;51027;42.162;24.754;2023-02-23T14:42:27;99870.06;;;11.90;73.39
64616;BME280;51027;42.162;24.754;2023-02-23T14:45:02;99880.41;;;11.94;73.35
64616;BME280;51027;42.162;24.754;2023-02-23T14:47:28;99873.84;;;11.82;73.73
64616;BME280;51027;42.162;24.754;2023-02-23T14:49:57;99873.56;;;11.46;75.37
64616;BME280;51027;42.162;24.754;2023-02-23T14:52:42;99876.06;;;11.49;75.64
64616;BME280;51027;42.162;24.754;2023-02-23T14:55:18;99869.50;;;11.38;76.23
64616;BME280;51027;42.162;24.754;2023-02-23T14:57:45;99872.50;;;11.29;76.73
64616;BME280;51027;42.162;24.754;2023-02-23T15:00:18;99888.75;;;11.18;77.49
64616;BME280;51027;42.162;24.754;2023-02-23T15:03:01;99888.25;;;11.30;77.18
64616;BME280;51027;42.162;24.754;2023-02-23T15:05:32;99885.38;;;11.14;77.99